Decoded Metar for OPSK (SUKKUR in PAKISTAN) (IATA:SKZ) | Meteo·Mobile Aviation Weather
aviador You're here:

OPSK Decoded Metar

SUKKUR in PAKISTAN
Report Time2018-12-16 10:00:00
UTC Time2018-12-16 10:41:04
Flight Rules ifr IFR
Wind360° at 06 kt
W.Decomp.*RWY 32: 4.6 kt HW 3.9 kt RCW
Visibility4000 m
Phenomena:Haze
Clouds:N/A
Expected CloudBase > 5,200 ft AGL from Temp-Dew spread
CeilingNone
Temp23°C (ISA +8)
Dew Point10°C (44% RH)
AAT20.9°C
QNH1021 hPa
Density Alt1,063 ft
Elevation190 ft
Report Wrong Elevation
Raw Report
METAR OPSK 161000Z 36006KT 4000 HZ NSC 23/10 Q1021 NOSIG=

Extra information for OPSK:More info

Metar Taf Metar & Taf Last 4 Metars F.Rules Stats Wind Profile Meteogram Temp Stats Airport Information Weather charts Add Link Nearby VenuesMetar ALERT Operation Metar Decoded Social comments